createdAt,value
2022-09-01T03:58:45.860Z,490.00
2022-09-01T03:59:46.091Z,503.00
2022-09-01T04:00:48.689Z,508.00
2022-09-01T04:01:44.387Z,512.00
2022-09-01T04:02:44.381Z,513.00
2022-09-01T04:03:46.112Z,514.00
2022-09-01T04:04:44.441Z,515.00
2022-09-01T04:05:46.172Z,516.00
2022-09-01T04:06:44.568Z,515.00
2022-09-01T04:07:44.546Z,516.00
2022-09-01T04:08:46.280Z,518.00
2022-09-01T04:09:44.634Z,517.00
2022-09-01T04:10:46.352Z,516.00
2022-09-01T04:11:46.070Z,516.00
2022-09-01T04:12:46.363Z,518.00
2022-09-01T04:13:46.600Z,519.00
2022-09-01T04:14:46.325Z,520.00
2022-09-01T04:15:45.548Z,520.00
2022-09-01T04:16:45.003Z,520.00
2022-09-01T04:17:44.885Z,520.00
2022-09-01T04:18:46.615Z,521.00
2022-09-01T04:19:46.836Z,522.00
2022-09-01T04:20:44.934Z,522.00
2022-09-01T04:21:46.636Z,521.00
2022-09-01T04:22:44.976Z,521.00
2022-09-01T04:23:45.029Z,519.00
2022-09-01T04:24:45.274Z,518.00
2022-09-01T04:25:45.044Z,518.00
2022-09-01T04:26:48.199Z,517.00
2022-09-01T04:27:45.119Z,518.00
2022-09-01T04:28:45.159Z,521.00
2022-09-01T04:29:45.186Z,521.00
2022-09-01T04:30:45.246Z,522.00
2022-09-01T04:31:47.026Z,522.00
2022-09-01T04:32:45.260Z,523.00
2022-09-01T04:33:45.286Z,522.00
2022-09-01T04:34:47.019Z,523.00
2022-09-01T04:35:45.370Z,523.00
2022-09-01T04:36:45.340Z,522.00
2022-09-01T04:37:45.386Z,523.00
2022-09-01T04:38:45.397Z,524.00
2022-09-01T04:39:52.491Z,525.00
2022-09-01T04:40:45.435Z,524.00
2022-09-01T04:41:47.145Z,526.00
2022-09-01T04:42:47.397Z,526.00
2022-09-01T04:43:46.182Z,530.00
2022-09-01T04:44:46.333Z,528.00
2022-09-01T04:45:46.300Z,530.00
2022-09-01T04:46:48.696Z,532.00
2022-09-01T04:47:47.516Z,533.00
2022-09-01T04:48:46.079Z,533.00
2022-09-01T04:49:47.313Z,534.00
2022-09-01T04:50:47.569Z,534.00
2022-09-01T04:51:48.967Z,533.00
2022-09-01T04:52:48.780Z,531.00
2022-09-01T04:53:47.599Z,529.00
2022-09-01T04:54:46.675Z,531.00
2022-09-01T04:55:49.837Z,530.00
2022-09-01T04:56:46.467Z,529.00
2022-09-01T04:57:47.613Z,528.00
2022-09-01T04:58:45.794Z,530.00
2022-09-01T04:59:48.956Z,532.00
2022-09-01T05:00:47.795Z,531.00
2022-09-01T05:01:45.871Z,529.00
2022-09-01T05:02:45.944Z,529.00
2022-09-01T05:03:45.887Z,528.00
2022-09-01T05:04:47.626Z,528.00
2022-09-01T05:05:45.919Z,528.00
2022-09-01T05:06:45.907Z,526.00
2022-09-01T05:07:45.996Z,525.00
2022-09-01T05:08:47.668Z,524.00
2022-09-01T05:09:45.989Z,522.00
2022-09-01T05:10:46.029Z,523.00
2022-09-01T05:11:46.059Z,521.00
2022-09-01T05:12:46.080Z,521.00
2022-09-01T05:13:47.812Z,521.00
2022-09-01T05:14:48.032Z,523.00
2022-09-01T05:15:46.133Z,523.00
2022-09-01T05:16:46.242Z,521.00
2022-09-01T05:17:46.264Z,523.00
2022-09-01T05:18:47.153Z,523.00
2022-09-01T05:19:47.382Z,526.00
2022-09-01T05:20:46.184Z,526.00
2022-09-01T05:21:46.224Z,527.00
2022-09-01T05:22:47.423Z,526.00
2022-09-01T05:23:47.225Z,528.00
2022-09-01T05:24:46.254Z,528.00
2022-09-01T05:25:48.003Z,529.00
2022-09-01T05:26:46.278Z,531.00
2022-09-01T05:27:47.615Z,528.00
2022-09-01T05:28:46.355Z,529.00
2022-09-01T05:29:46.747Z,528.00
2022-09-01T05:30:47.909Z,526.00
2022-09-01T05:31:46.432Z,527.00
2022-09-01T05:32:48.071Z,527.00
2022-09-01T05:33:46.380Z,526.00
2022-09-01T05:34:46.425Z,526.00
2022-09-01T05:35:47.337Z,522.00
2022-09-01T05:36:48.189Z,520.00
2022-09-01T05:37:48.419Z,520.00
2022-09-01T05:38:49.589Z,520.00
2022-09-01T05:39:47.474Z,519.00
2022-09-01T05:40:46.562Z,521.00
2022-09-01T05:41:46.519Z,523.00
2022-09-01T05:42:46.549Z,523.00
2022-09-01T05:43:48.561Z,522.00
2022-09-01T05:44:48.158Z,524.00
2022-09-01T05:46:05.561Z,521.00
2022-09-01T05:46:46.718Z,523.00
2022-09-01T05:47:46.934Z,522.00
2022-09-01T05:48:46.697Z,522.00
2022-09-01T05:49:48.769Z,521.00
2022-09-01T05:50:47.431Z,521.00
2022-09-01T05:51:50.672Z,523.00
2022-09-01T05:52:47.042Z,524.00
2022-09-01T05:53:47.686Z,526.00
2022-09-01T05:54:47.748Z,525.00
2022-09-01T05:55:46.792Z,529.00
2022-09-01T05:56:47.775Z,529.00
2022-09-01T05:57:49.036Z,531.00
2022-09-01T05:59:48.364Z,528.00
2022-09-01T06:02:28.780Z,522.00
2022-09-01T06:03:22.901Z,529.00
2022-09-01T06:04:17.610Z,532.00
2022-09-01T06:05:17.073Z,533.00
2022-09-01T06:06:15.374Z,533.00
2022-09-01T06:07:17.124Z,535.00
2022-09-01T06:08:15.419Z,536.00
2022-09-01T06:09:16.163Z,537.00
2022-09-01T06:10:18.744Z,535.00
2022-09-01T06:11:16.224Z,536.00
2022-09-01T06:12:17.405Z,536.00
2022-09-01T06:13:17.091Z,534.00
2022-09-01T06:14:15.556Z,534.00
2022-09-01T06:15:15.584Z,532.00
2022-09-01T06:16:17.371Z,531.00
2022-09-01T06:17:15.636Z,535.00
2022-09-01T06:18:17.387Z,536.00
2022-09-01T06:19:15.627Z,535.00
2022-09-01T06:20:15.628Z,537.00
2022-09-01T06:21:15.707Z,537.00
2022-09-01T06:22:15.689Z,540.00
2022-09-01T06:23:17.408Z,539.00
2022-09-01T06:24:15.688Z,539.00
2022-09-01T06:25:17.469Z,538.00
2022-09-01T06:26:18.632Z,536.00
2022-09-01T06:27:17.401Z,538.00
2022-09-01T06:28:25.842Z,540.00
2022-09-01T06:29:16.550Z,541.00
2022-09-01T06:30:16.366Z,541.00
2022-09-01T06:31:15.857Z,542.00
2022-09-01T06:32:17.549Z,543.00
2022-09-01T06:33:17.473Z,545.00
2022-09-01T06:34:16.591Z,545.00
2022-09-01T06:35:15.871Z,547.00
2022-09-01T06:36:15.932Z,547.00
2022-09-01T06:37:15.902Z,547.00
2022-09-01T06:38:17.163Z,545.00
2022-09-01T06:39:16.924Z,543.00
2022-09-01T06:40:16.839Z,540.00
2022-09-01T06:41:16.089Z,542.00
2022-09-01T06:42:16.042Z,545.00
2022-09-01T06:43:17.974Z,544.00
2022-09-01T06:44:15.986Z,542.00
2022-09-01T06:45:17.838Z,541.00
2022-09-01T06:46:18.044Z,543.00
2022-09-01T06:47:16.076Z,543.00
2022-09-01T06:48:16.227Z,538.00
2022-09-01T06:49:16.129Z,537.00
2022-09-01T06:51:21.348Z,543.00
2022-09-01T06:52:16.897Z,544.00
2022-09-01T06:54:21.051Z,544.00
2022-09-01T06:55:16.315Z,545.00
2022-09-01T06:56:17.998Z,545.00
2022-09-01T06:58:16.323Z,544.00
2022-09-01T06:59:18.173Z,546.00
2022-09-01T07:00:16.287Z,544.00
2022-09-01T07:01:17.614Z,543.00
2022-09-01T07:02:17.748Z,539.00
2022-09-01T07:03:17.145Z,539.00
2022-09-01T07:04:17.059Z,539.00
2022-09-01T07:08:16.382Z,537.00
2022-09-01T07:09:22.251Z,538.00
2022-09-01T07:10:21.439Z,536.00
2022-09-01T07:11:20.002Z,537.00
2022-09-01T07:12:31.955Z,536.00
2022-09-01T07:13:18.305Z,536.00
2022-09-01T07:14:16.535Z,535.00
2022-09-01T07:16:41.830Z,532.00
2022-09-01T07:17:23.907Z,531.00
2022-09-01T07:18:19.692Z,530.00
2022-09-01T07:19:18.174Z,531.00
2022-09-01T07:20:27.235Z,530.00
2022-09-01T07:23:20.447Z,527.00
2022-09-01T07:24:21.190Z,525.00
2022-09-01T07:25:16.714Z,523.00
2022-09-01T07:26:24.686Z,520.00
2022-09-01T07:27:16.787Z,520.00
2022-09-01T07:28:17.809Z,520.00
2022-09-01T07:29:20.467Z,519.00
2022-09-01T07:30:17.668Z,517.00
2022-09-01T07:35:17.972Z,515.00
2022-09-01T07:36:32.203Z,517.00
2022-09-01T07:38:47.258Z,518.00
2022-09-01T07:43:17.463Z,515.00
2022-09-01T07:44:17.114Z,516.00
2022-09-01T07:45:26.922Z,514.00
2022-09-01T07:47:51.824Z,512.00
2022-09-01T07:48:35.948Z,513.00
2022-09-01T07:50:07.972Z,513.00
2022-09-01T07:51:46.935Z,513.00
2022-09-01T07:52:43.992Z,514.00
2022-09-01T07:53:44.687Z,521.00
2022-09-01T07:54:44.064Z,527.00
2022-09-01T07:55:48.293Z,526.00
2022-09-01T07:56:45.191Z,528.00
2022-09-01T07:57:49.832Z,532.00
2022-09-01T07:58:44.093Z,530.00
2022-09-01T07:59:48.655Z,526.00
2022-09-01T08:00:44.206Z,526.00
2022-09-01T08:01:44.248Z,526.00
2022-09-01T08:02:45.564Z,525.00
2022-09-01T08:03:45.165Z,525.00
2022-09-01T08:04:44.258Z,525.00
2022-09-01T08:05:44.258Z,525.00
2022-09-01T08:06:46.148Z,524.00
2022-09-01T08:07:52.270Z,523.00
2022-09-01T08:08:45.237Z,523.00
2022-09-01T08:09:45.589Z,520.00
2022-09-01T08:10:44.287Z,517.00
2022-09-01T08:12:02.948Z,516.00
2022-09-01T08:12:44.366Z,516.00
2022-09-01T08:13:44.266Z,512.00
2022-09-01T08:14:44.387Z,510.00
2022-09-01T08:16:53.263Z,511.00
2022-09-01T08:17:52.923Z,511.00
2022-09-01T08:18:51.842Z,512.00
2022-09-01T08:19:51.908Z,512.00
2022-09-01T08:20:45.884Z,514.00
2022-09-01T08:24:48.953Z,516.00
2022-09-01T08:25:45.084Z,513.00
2022-09-01T08:26:45.135Z,513.00
2022-09-01T08:27:45.238Z,512.00
2022-09-01T08:28:47.136Z,509.00
2022-09-01T08:29:48.805Z,509.00
2022-09-01T08:30:52.188Z,504.00
2022-09-01T08:31:45.251Z,504.00
2022-09-01T08:32:45.206Z,504.00
2022-09-01T08:33:46.898Z,501.00
2022-09-01T08:34:47.039Z,497.00
2022-09-01T08:35:45.353Z,497.00
2022-09-01T08:36:45.400Z,495.00
2022-09-01T08:37:45.553Z,492.00
2022-09-01T08:38:48.361Z,494.00
2022-09-01T08:39:45.570Z,495.00
2022-09-01T08:40:47.443Z,496.00
2022-09-01T08:41:50.488Z,496.00
2022-09-01T08:42:46.986Z,496.00
2022-09-01T08:43:48.439Z,496.00
2022-09-01T08:44:46.651Z,497.00
2022-09-01T08:45:49.069Z,497.00
2022-09-01T08:46:48.057Z,496.00
2022-09-01T08:48:20.283Z,493.00
2022-09-01T08:49:47.781Z,496.00
2022-09-01T08:50:51.913Z,494.00
2022-09-01T08:51:45.525Z,494.00
2022-09-01T08:52:46.736Z,494.00
2022-09-01T08:53:45.587Z,496.00
2022-09-01T08:54:47.662Z,496.00
2022-09-01T08:55:45.573Z,495.00
2022-09-01T08:56:47.373Z,497.00
2022-09-01T08:57:57.124Z,499.00
2022-09-01T08:58:48.112Z,498.00
2022-09-01T08:59:45.633Z,499.00
2022-09-01T09:00:54.859Z,501.00
2022-09-01T09:01:47.705Z,497.00
2022-09-01T09:02:45.819Z,497.00
2022-09-01T09:03:47.525Z,499.00
2022-09-01T09:04:46.745Z,499.00
2022-09-01T09:05:49.993Z,500.00
2022-09-01T09:06:45.886Z,500.00
2022-09-01T09:07:45.795Z,501.00
2022-09-01T09:08:47.617Z,500.00
2022-09-01T09:09:53.061Z,499.00
2022-09-01T09:10:47.668Z,501.00
2022-09-01T09:11:45.911Z,501.00
2022-09-01T09:12:49.277Z,502.00
2022-09-01T09:13:47.022Z,499.00
2022-09-01T09:14:58.498Z,499.00
2022-09-01T09:15:48.331Z,501.00
2022-09-01T09:16:45.929Z,500.00
2022-09-01T09:17:47.801Z,498.00
2022-09-01T09:19:01.080Z,499.00
2022-09-01T09:19:47.718Z,500.00
2022-09-01T09:20:55.976Z,499.00
2022-09-01T09:21:46.742Z,497.00
2022-09-01T09:22:52.104Z,499.00
2022-09-01T09:23:52.810Z,495.00
2022-09-01T09:24:47.115Z,495.00
2022-09-01T09:25:50.264Z,494.00
2022-09-01T09:26:51.168Z,493.00
2022-09-01T09:28:00.459Z,493.00
2022-09-01T09:28:48.588Z,495.00
2022-09-01T09:29:54.608Z,494.00
2022-09-01T09:30:54.636Z,497.00
2022-09-01T09:31:46.666Z,498.00
2022-09-01T09:33:19.975Z,498.00
2022-09-01T09:35:19.564Z,494.00
2022-09-01T09:38:02.915Z,493.00
2022-09-01T09:39:01.424Z,492.00
2022-09-01T09:40:02.659Z,494.00
2022-09-01T09:41:18.371Z,494.00
2022-09-01T09:41:59.951Z,492.00
2022-09-01T09:43:01.604Z,490.00
2022-09-01T09:44:11.304Z,491.00
2022-09-01T09:45:05.250Z,488.00
2022-09-01T09:46:04.687Z,486.00
2022-09-01T09:47:13.473Z,486.00
2022-09-01T09:48:02.439Z,483.00
2022-09-01T09:49:01.959Z,483.00
2022-09-01T09:50:00.789Z,483.00
2022-09-01T09:51:01.585Z,483.00
2022-09-01T09:51:59.865Z,485.00
2022-09-01T09:53:00.936Z,487.00
2022-09-01T09:53:59.791Z,488.00
2022-09-01T09:55:01.720Z,486.00
2022-09-01T09:56:01.382Z,487.00
2022-09-01T09:56:59.896Z,490.00
2022-09-01T09:57:59.922Z,491.00
2022-09-01T09:59:00.859Z,491.00
2022-09-01T10:00:01.715Z,492.00
2022-09-01T10:01:03.985Z,490.00
2022-09-01T10:13:03.938Z,465.00
2022-09-01T10:14:05.300Z,481.00
2022-09-01T10:15:11.616Z,485.00
2022-09-01T10:16:05.865Z,488.00
2022-09-01T10:17:07.168Z,490.00
2022-09-01T10:18:28.483Z,493.00
2022-09-01T10:19:03.677Z,491.00
2022-09-01T10:20:04.756Z,490.00
2022-09-01T10:21:05.459Z,490.00
2022-09-01T10:22:05.000Z,491.00
2022-09-01T10:23:04.125Z,491.00
2022-09-01T10:24:22.255Z,494.00
2022-09-01T10:25:04.869Z,494.00
2022-09-01T10:26:06.037Z,492.00
2022-09-01T10:27:03.270Z,491.00
2022-09-01T10:28:04.944Z,492.00
2022-09-01T10:29:06.280Z,493.00
2022-09-01T10:30:13.488Z,492.00
2022-09-01T10:31:03.403Z,489.00
2022-09-01T10:32:30.664Z,491.00
2022-09-01T10:33:11.383Z,488.00
2022-09-01T10:34:05.373Z,486.00
2022-09-01T10:35:04.116Z,482.00
2022-09-01T10:36:06.976Z,481.00
2022-09-01T10:37:03.469Z,479.00
2022-09-01T10:38:03.538Z,481.00
2022-09-01T10:39:09.115Z,479.00
2022-09-01T10:40:04.066Z,479.00
2022-09-01T10:41:03.846Z,476.00
2022-09-01T10:42:12.855Z,474.00
2022-09-01T10:43:05.893Z,474.00
2022-09-01T10:44:08.305Z,475.00
2022-09-01T10:45:17.834Z,475.00
2022-09-01T10:46:15.672Z,475.00
2022-09-01T10:47:36.191Z,475.00
2022-09-01T10:48:14.822Z,476.00
2022-09-01T10:49:07.249Z,475.00
2022-09-01T10:50:07.629Z,475.00
2022-09-01T10:51:04.039Z,475.00
2022-09-01T10:52:12.992Z,472.00
2022-09-01T10:53:05.556Z,474.00
2022-09-01T10:54:03.860Z,473.00
2022-09-01T10:55:03.837Z,474.00
2022-09-01T10:56:18.227Z,473.00
2022-09-01T10:57:09.226Z,471.00
2022-09-01T10:59:30.076Z,468.00
2022-09-01T11:00:05.964Z,470.00
2022-09-01T11:01:11.829Z,469.00
2022-09-01T11:03:29.646Z,476.00
2022-09-01T11:04:04.221Z,475.00
2022-09-01T11:05:04.967Z,474.00
2022-09-01T11:06:12.285Z,473.00
2022-09-01T11:07:15.056Z,473.00
2022-09-01T11:08:15.791Z,474.00
2022-09-01T11:09:05.100Z,475.00
2022-09-01T11:10:11.267Z,472.00
2022-09-01T11:11:07.256Z,473.00
2022-09-01T11:12:04.626Z,474.00
2022-09-01T11:13:06.375Z,472.00
2022-09-01T11:14:05.870Z,475.00
2022-09-01T11:16:47.316Z,468.00
2022-09-01T11:17:31.393Z,473.00
2022-09-01T11:18:35.247Z,477.00
2022-09-01T11:19:30.983Z,478.00
2022-09-01T11:20:34.858Z,479.00
2022-09-01T11:21:42.361Z,476.00
2022-09-01T11:22:30.538Z,475.00
2022-09-01T11:23:32.989Z,472.00
2022-09-01T11:24:36.059Z,469.00
2022-09-01T11:25:40.499Z,471.00
2022-09-01T11:26:34.001Z,472.00
2022-09-01T11:27:31.176Z,468.00
2022-09-01T11:28:32.711Z,463.00
2022-09-01T11:29:30.471Z,466.00
2022-09-01T11:30:30.322Z,429.00
2022-09-01T11:31:35.489Z,447.00
2022-09-01T11:32:34.119Z,502.00
2022-09-01T11:33:33.182Z,477.00
2022-09-01T11:34:32.562Z,467.00
2022-09-01T11:35:33.026Z,462.00
2022-09-01T11:36:35.248Z,459.00
2022-09-01T11:37:34.398Z,459.00
2022-09-01T11:38:30.875Z,458.00
2022-09-01T11:39:30.702Z,456.00
2022-09-01T11:40:32.554Z,407.00
2022-09-01T11:41:30.566Z,466.00
2022-09-01T11:42:30.612Z,460.00
2022-09-01T11:43:32.327Z,460.00
2022-09-01T11:44:32.763Z,457.00
2022-09-01T11:45:31.323Z,455.00
2022-09-01T11:46:30.577Z,456.00
2022-09-01T11:47:32.347Z,459.00
2022-09-01T11:48:31.133Z,460.00
2022-09-01T11:49:30.583Z,461.00
2022-09-01T11:50:30.636Z,460.00
2022-09-01T11:51:32.880Z,464.00
2022-09-01T11:52:30.704Z,461.00
2022-09-01T11:53:34.438Z,461.00
2022-09-01T11:54:32.017Z,467.00
2022-09-01T11:55:30.899Z,465.00
2022-09-01T11:56:43.611Z,464.00
2022-09-01T12:01:59.238Z,492.00
2022-09-01T12:02:59.579Z,491.00
2022-09-01T12:03:57.506Z,497.00
2022-09-01T12:05:00.729Z,490.00
2022-09-01T12:05:57.368Z,476.00
2022-09-01T12:06:57.448Z,494.00
2022-09-01T12:08:01.091Z,479.00
2022-09-01T12:08:57.429Z,485.00
2022-09-01T12:09:58.318Z,488.00
2022-09-01T12:11:05.948Z,491.00
2022-09-01T12:12:02.034Z,491.00
2022-09-01T12:13:00.515Z,489.00
2022-09-01T12:14:04.691Z,490.00
2022-09-01T12:15:06.410Z,490.00
2022-09-01T12:17:00.680Z,486.00
2022-09-01T12:18:06.614Z,489.00
2022-09-01T12:18:59.256Z,489.00
2022-09-01T12:19:58.687Z,488.00
2022-09-01T12:20:58.973Z,487.00
2022-09-01T12:21:58.723Z,487.00
2022-09-01T12:23:00.017Z,487.00
2022-09-01T12:23:59.800Z,486.00
2022-09-01T12:24:57.840Z,482.00
2022-09-01T12:25:59.783Z,483.00
2022-09-01T12:26:57.874Z,483.00
2022-09-01T12:27:57.892Z,481.00
2022-09-01T12:29:01.615Z,478.00
2022-09-01T12:29:59.302Z,477.00
2022-09-01T12:30:58.023Z,477.00
2022-09-01T12:31:58.098Z,478.00
2022-09-01T12:34:01.212Z,476.00
2022-09-01T12:34:58.059Z,471.00
2022-09-01T12:35:59.699Z,467.00
2022-09-01T12:36:58.006Z,469.00
2022-09-01T12:37:59.794Z,473.00
2022-09-01T12:38:58.142Z,475.00
2022-09-01T12:39:59.089Z,479.00
2022-09-01T12:40:58.271Z,478.00
2022-09-01T12:41:58.103Z,479.00
2022-09-01T12:42:59.404Z,480.00
2022-09-01T12:43:59.304Z,481.00
2022-09-01T12:44:59.555Z,483.00
2022-09-01T12:46:00.143Z,484.00
2022-09-01T12:46:59.337Z,486.00
2022-09-01T12:48:02.585Z,489.00
2022-09-01T12:48:59.322Z,488.00
2022-09-01T12:50:00.902Z,488.00
2022-09-01T12:50:59.667Z,490.00
2022-09-01T12:52:00.759Z,493.00
2022-09-01T12:52:59.347Z,493.00
2022-09-01T12:53:59.383Z,492.00
2022-09-01T12:55:00.210Z,490.00
2022-09-01T12:55:58.476Z,490.00
2022-09-01T12:56:58.548Z,491.00
2022-09-01T12:57:59.798Z,495.00
2022-09-01T12:58:58.589Z,496.00
2022-09-01T13:00:01.836Z,496.00
2022-09-01T13:00:58.876Z,494.00
2022-09-01T13:02:02.574Z,496.00
2022-09-01T13:02:59.455Z,497.00
2022-09-01T13:03:59.859Z,498.00
2022-09-01T13:04:58.860Z,496.00
2022-09-01T13:06:01.652Z,496.00
2022-09-01T13:07:01.003Z,498.00
2022-09-01T13:07:58.871Z,502.00
2022-09-01T13:08:58.886Z,503.00
2022-09-01T13:10:13.741Z,501.00
2022-09-01T13:10:59.010Z,499.00
2022-09-01T13:12:07.935Z,497.00
2022-09-01T13:12:58.926Z,497.00
2022-09-01T13:14:01.823Z,496.00
2022-09-01T13:14:59.466Z,494.00
2022-09-01T13:15:59.850Z,498.00
2022-09-01T13:17:00.221Z,499.00
2022-09-01T13:17:59.985Z,499.00
2022-09-01T13:19:24.073Z,495.00
2022-09-01T13:20:01.507Z,492.00
2022-09-01T13:21:00.864Z,486.00
2022-09-01T13:22:01.087Z,482.00
2022-09-01T13:23:00.191Z,481.00
2022-09-01T13:23:59.137Z,482.00
2022-09-01T13:25:00.123Z,484.00
2022-09-01T13:26:01.849Z,485.00
2022-09-01T13:27:59.180Z,482.00
2022-09-01T13:29:01.878Z,481.00
2022-09-01T13:30:03.177Z,482.00
2022-09-01T13:34:22.179Z,481.00
2022-09-01T13:35:02.069Z,479.00
2022-09-01T13:35:59.548Z,479.00
2022-09-01T13:37:00.823Z,479.00
2022-09-01T13:38:03.706Z,481.00
2022-09-01T13:39:02.443Z,482.00
2022-09-01T13:40:02.057Z,479.00
2022-09-01T13:40:59.564Z,478.00
2022-09-01T13:41:59.504Z,475.00
2022-09-01T13:43:02.035Z,478.00
2022-09-01T13:43:59.856Z,479.00
2022-09-01T13:45:02.859Z,482.00
2022-09-01T13:46:05.225Z,483.00
2022-09-01T13:47:28.247Z,483.00
2022-09-01T13:48:15.705Z,483.00
2022-09-01T13:49:03.244Z,485.00
2022-09-01T13:50:07.846Z,484.00
2022-09-01T13:51:18.443Z,483.00
2022-09-01T13:52:01.409Z,482.00
2022-09-01T13:53:00.292Z,483.00
2022-09-01T13:54:00.451Z,484.00
2022-09-01T13:55:00.357Z,484.00
2022-09-01T13:55:59.690Z,481.00
2022-09-01T13:56:59.559Z,482.00
2022-09-01T13:58:01.367Z,484.00
2022-09-01T13:59:00.229Z,484.00
2022-09-01T13:59:59.601Z,484.00
2022-09-01T14:01:01.374Z,481.00
2022-09-01T14:01:59.621Z,479.00
2022-09-01T14:03:00.629Z,476.00
2022-09-01T14:04:03.355Z,479.00
2022-09-01T14:05:00.633Z,479.00
2022-09-01T14:05:59.694Z,480.00
2022-09-01T14:06:59.810Z,478.00
2022-09-01T14:08:01.475Z,476.00
2022-09-01T14:08:59.804Z,475.00
2022-09-01T14:09:59.803Z,473.00
2022-09-01T14:10:59.864Z,473.00
2022-09-01T14:12:00.764Z,472.00
2022-09-01T14:13:01.095Z,472.00
2022-09-01T14:13:59.887Z,471.00
2022-09-01T14:15:18.601Z,467.00
2022-09-01T14:16:00.677Z,466.00
2022-09-01T14:16:59.926Z,467.00
2022-09-01T14:17:59.917Z,465.00
2022-09-01T14:18:59.965Z,464.00
2022-09-01T14:20:00.017Z,465.00
2022-09-01T14:21:01.758Z,466.00
2022-09-01T14:21:59.997Z,464.00
2022-09-01T14:22:59.986Z,463.00
2022-09-01T14:24:00.021Z,463.00
2022-09-01T14:25:00.020Z,465.00
2022-09-01T14:26:01.738Z,465.00
2022-09-01T14:27:00.040Z,468.00
2022-09-01T14:28:01.763Z,469.00
2022-09-01T14:29:00.084Z,469.00
2022-09-01T14:30:00.139Z,470.00
2022-09-01T14:32:09.485Z,463.00
2022-09-01T14:33:09.714Z,468.00
2022-09-01T14:34:07.840Z,470.00
2022-09-01T14:35:07.860Z,472.00
2022-09-01T14:36:10.077Z,469.00
2022-09-01T14:37:09.577Z,471.00
2022-09-01T14:38:09.798Z,471.00
2022-09-01T14:39:07.898Z,470.00
2022-09-01T14:40:07.995Z,469.00
2022-09-01T14:41:07.944Z,470.00
2022-09-01T14:42:07.987Z,468.00
2022-09-01T14:43:09.199Z,470.00
2022-09-01T14:44:08.039Z,467.00
2022-09-01T14:45:08.066Z,469.00
2022-09-01T14:46:08.105Z,466.00
2022-09-01T14:47:08.155Z,465.00
2022-09-01T14:48:08.121Z,463.00
2022-09-01T14:49:09.842Z,465.00
2022-09-01T14:51:09.162Z,460.00
2022-09-01T14:52:12.029Z,458.00
2022-09-01T14:53:08.244Z,460.00
2022-09-01T14:54:09.974Z,461.00
2022-09-01T14:55:09.183Z,460.00
2022-09-01T14:56:10.048Z,460.00
2022-09-01T14:58:08.374Z,463.00
2022-09-01T14:59:08.415Z,467.00
2022-09-01T15:00:09.216Z,467.00
2022-09-01T15:01:32.764Z,468.00
2022-09-01T15:02:08.496Z,469.00
2022-09-01T15:03:08.519Z,469.00
2022-09-01T15:04:10.227Z,470.00
2022-09-01T15:05:08.596Z,469.00
2022-09-01T15:06:08.523Z,470.00
2022-09-01T15:07:08.554Z,469.00
2022-09-01T15:08:14.231Z,468.00
2022-09-01T15:09:08.628Z,467.00
2022-09-01T15:10:10.355Z,466.00
2022-09-01T15:11:08.698Z,466.00
2022-09-01T15:12:08.739Z,465.00
2022-09-01T15:13:08.770Z,466.00
2022-09-01T15:14:08.815Z,467.00
2022-09-01T15:15:10.544Z,466.00
2022-09-01T15:16:09.124Z,462.00
2022-09-01T15:17:08.906Z,459.00
2022-09-01T15:18:12.609Z,461.00
2022-09-01T15:19:10.852Z,462.00
2022-09-01T15:20:08.923Z,464.00
2022-09-01T15:21:08.969Z,461.00
2022-09-01T15:22:09.017Z,462.00
2022-09-01T15:23:09.045Z,461.00
2022-09-01T15:24:10.264Z,460.00
2022-09-01T15:25:10.984Z,461.00
2022-09-01T15:26:09.086Z,463.00
2022-09-01T15:27:09.104Z,462.00
2022-09-01T15:28:09.129Z,461.00
2022-09-01T15:29:09.144Z,460.00
2022-09-01T15:30:10.869Z,462.00
2022-09-01T15:31:11.174Z,462.00
2022-09-01T15:32:09.237Z,460.00
2022-09-01T15:33:15.366Z,459.00
2022-09-01T15:34:09.238Z,461.00
2022-09-01T15:35:09.277Z,463.00
2022-09-01T15:36:10.498Z,463.00
2022-09-01T15:37:09.442Z,463.00
2022-09-01T15:38:09.356Z,462.00
2022-09-01T15:39:10.576Z,462.00
2022-09-01T15:40:09.534Z,463.00
2022-09-01T15:41:09.409Z,463.00
2022-09-01T15:42:11.356Z,462.00
2022-09-01T15:43:11.008Z,462.00
2022-09-01T15:44:09.471Z,463.00
2022-09-01T15:45:09.481Z,464.00
2022-09-01T15:46:09.511Z,463.00
2022-09-01T15:47:09.533Z,464.00
2022-09-01T15:48:11.252Z,466.00
2022-09-01T15:49:09.595Z,465.00
2022-09-01T15:50:09.640Z,463.00
2022-09-01T15:51:09.685Z,464.00
2022-09-01T15:52:09.703Z,464.00
2022-09-01T15:53:11.462Z,463.00
2022-09-01T15:54:09.831Z,462.00
2022-09-01T15:55:09.735Z,463.00
2022-09-01T15:56:09.759Z,465.00
2022-09-01T15:57:09.795Z,464.00
2022-09-01T15:58:11.514Z,464.00
2022-09-01T15:59:09.842Z,465.00
2022-09-01T16:00:09.865Z,466.00
2022-09-01T16:12:22.446Z,420.00
2022-09-01T16:13:20.788Z,439.00
2022-09-01T16:14:23.927Z,445.00
2022-09-01T16:15:21.727Z,445.00
2022-09-01T16:16:21.730Z,450.00
2022-09-01T16:17:23.987Z,450.00
2022-09-01T16:18:21.049Z,451.00
2022-09-01T16:19:24.639Z,453.00
2022-09-01T16:20:20.890Z,450.00
2022-09-01T16:21:22.654Z,450.00
2022-09-01T16:22:24.309Z,447.00
2022-09-01T16:23:24.040Z,448.00
2022-09-01T16:24:23.870Z,452.00
2022-09-01T16:25:20.930Z,453.00
2022-09-01T16:26:24.101Z,454.00
2022-09-01T16:27:21.020Z,453.00
2022-09-01T16:28:22.758Z,452.00
2022-09-01T16:29:22.963Z,453.00
2022-09-01T16:30:21.060Z,453.00
2022-09-01T16:31:21.278Z,454.00
2022-09-01T16:32:21.087Z,455.00
2022-09-01T16:33:21.086Z,457.00
2022-09-01T16:34:26.168Z,460.00
2022-09-01T16:35:21.143Z,459.00
2022-09-01T16:36:21.144Z,459.00
2022-09-01T16:37:23.815Z,458.00
2022-09-01T16:38:21.275Z,457.00
2022-09-01T16:39:22.886Z,458.00
2022-09-01T16:40:21.250Z,458.00
2022-09-01T16:41:21.226Z,457.00
2022-09-01T16:42:22.946Z,458.00
2022-09-01T16:43:21.236Z,458.00
2022-09-01T16:44:22.970Z,456.00
2022-09-01T16:45:23.216Z,454.00
2022-09-01T16:46:21.345Z,454.00
2022-09-01T16:47:21.359Z,451.00
2022-09-01T16:48:21.491Z,449.00
2022-09-01T16:49:23.318Z,451.00
2022-09-01T16:50:23.314Z,452.00
2022-09-01T16:51:22.247Z,450.00
2022-09-01T16:52:23.169Z,450.00
2022-09-01T16:53:21.469Z,453.00
2022-09-01T16:54:21.462Z,456.00
2022-09-01T16:55:22.681Z,455.00
2022-09-01T16:56:21.523Z,458.00
2022-09-01T16:57:21.630Z,458.00
2022-09-01T16:58:21.860Z,456.00
2022-09-01T16:59:23.302Z,457.00
2022-09-01T17:00:21.650Z,458.00
2022-09-01T17:01:23.442Z,457.00
2022-09-01T17:02:21.835Z,459.00
2022-09-01T17:03:22.892Z,461.00
2022-09-01T17:04:21.836Z,461.00
2022-09-01T17:05:23.453Z,459.00
2022-09-01T17:06:21.799Z,457.00
2022-09-01T17:07:24.226Z,457.00
2022-09-01T17:08:21.824Z,457.00
2022-09-01T17:09:23.054Z,458.00
2022-09-01T17:10:21.815Z,457.00
2022-09-01T17:11:21.838Z,456.00
2022-09-01T17:12:23.655Z,459.00
2022-09-01T17:13:24.666Z,459.00
2022-09-01T17:14:21.948Z,460.00
2022-09-01T17:15:23.670Z,459.00
2022-09-01T17:16:22.086Z,457.00
2022-09-01T17:17:21.972Z,457.00
2022-09-01T17:18:23.092Z,460.00
2022-09-01T17:19:21.940Z,461.00
2022-09-01T17:20:23.657Z,460.00
2022-09-01T17:21:21.989Z,457.00
2022-09-01T17:22:22.029Z,456.00
2022-09-01T17:23:28.518Z,455.00
2022-09-01T17:24:22.159Z,458.00
2022-09-01T17:25:23.943Z,458.00
2022-09-01T17:26:22.160Z,459.00
2022-09-01T17:27:22.190Z,458.00
2022-09-01T17:28:23.181Z,456.00
2022-09-01T17:29:24.022Z,456.00
2022-09-01T17:30:23.746Z,456.00
2022-09-01T17:31:24.045Z,457.00
2022-09-01T17:32:22.359Z,456.00
2022-09-01T17:33:24.055Z,455.00
2022-09-01T17:34:22.342Z,452.00
2022-09-01T17:35:24.073Z,451.00
2022-09-01T17:36:22.453Z,451.00
2022-09-01T17:37:22.458Z,452.00